sensor_id;sensor_type;location;lat;lon;timestamp;P1;durP1;ratioP1;P2;durP2;ratioP2
19560;SDS011;9927;47.792;10.616;2023-04-03T03:01:24;35.83;;;21.13;;
19560;SDS011;9927;47.792;10.616;2023-04-03T03:03:55;36.27;;;21.83;;
19560;SDS011;9927;47.792;10.616;2023-04-03T03:06:22;35.67;;;21.53;;
19560;SDS011;9927;47.792;10.616;2023-04-03T03:08:50;33.90;;;20.83;;
19560;SDS011;9927;47.792;10.616;2023-04-03T03:11:17;34.63;;;21.03;;
19560;SDS011;9927;47.792;10.616;2023-04-03T03:13:45;34.03;;;21.30;;
19560;SDS011;9927;47.792;10.616;2023-04-03T03:16:12;35.13;;;21.40;;
19560;SDS011;9927;47.792;10.616;2023-04-03T03:18:39;31.20;;;19.70;;
19560;SDS011;9927;47.792;10.616;2023-04-03T03:21:07;33.63;;;20.83;;
19560;SDS011;9927;47.792;10.616;2023-04-03T03:23:36;30.13;;;19.53;;
19560;SDS011;9927;47.792;10.616;2023-04-03T03:26:04;34.30;;;20.87;;
19560;SDS011;9927;47.792;10.616;2023-04-03T03:28:33;30.70;;;19.60;;
19560;SDS011;9927;47.792;10.616;2023-04-03T03:31:02;34.50;;;21.23;;
19560;SDS011;9927;47.792;10.616;2023-04-03T03:33:30;32.40;;;20.20;;
19560;SDS011;9927;47.792;10.616;2023-04-03T03:36:00;32.70;;;20.07;;
19560;SDS011;9927;47.792;10.616;2023-04-03T03:38:27;31.87;;;19.70;;
19560;SDS011;9927;47.792;10.616;2023-04-03T03:40:55;33.57;;;20.57;;
19560;SDS011;9927;47.792;10.616;2023-04-03T03:43:22;32.67;;;19.90;;
19560;SDS011;9927;47.792;10.616;2023-04-03T03:45:50;30.50;;;19.80;;
19560;SDS011;9927;47.792;10.616;2023-04-03T03:48:19;30.40;;;19.63;;
19560;SDS011;9927;47.792;10.616;2023-04-03T03:53:24;30.80;;;20.07;;
19560;SDS011;9927;47.792;10.616;2023-04-03T03:55:51;31.80;;;18.37;;
19560;SDS011;9927;47.792;10.616;2023-04-03T03:58:18;29.97;;;20.47;;
19560;SDS011;9927;47.792;10.616;2023-04-03T04:06:59;34.07;;;21.63;;
19560;SDS011;9927;47.792;10.616;2023-04-03T04:09:29;27.87;;;18.40;;
19560;SDS011;9927;47.792;10.616;2023-04-03T04:11:56;25.00;;;17.50;;
19560;SDS011;9927;47.792;10.616;2023-04-03T04:14:24;29.53;;;19.47;;
19560;SDS011;9927;47.792;10.616;2023-04-03T04:16:51;25.83;;;17.37;;
19560;SDS011;9927;47.792;10.616;2023-04-03T04:19:18;28.00;;;19.33;;
19560;SDS011;9927;47.792;10.616;2023-04-03T04:21:46;30.47;;;17.53;;
19560;SDS011;9927;47.792;10.616;2023-04-03T04:24:13;26.67;;;17.80;;
19560;SDS011;9927;47.792;10.616;2023-04-03T04:26:40;25.37;;;18.23;;
19560;SDS011;9927;47.792;10.616;2023-04-03T04:29:08;30.03;;;18.67;;
19560;SDS011;9927;47.792;10.616;2023-04-03T04:31:36;22.97;;;17.10;;
19560;SDS011;9927;47.792;10.616;2023-04-03T04:34:04;28.40;;;18.30;;
19560;SDS011;9927;47.792;10.616;2023-04-03T04:36:31;26.67;;;17.73;;
19560;SDS011;9927;47.792;10.616;2023-04-03T04:38:58;24.47;;;16.70;;
19560;SDS011;9927;47.792;10.616;2023-04-03T04:41:26;25.80;;;16.50;;
19560;SDS011;9927;47.792;10.616;2023-04-03T04:43:53;18.70;;;14.83;;
19560;SDS011;9927;47.792;10.616;2023-04-03T04:46:21;20.87;;;15.63;;
19560;SDS011;9927;47.792;10.616;2023-04-03T04:48:48;19.33;;;15.20;;
19560;SDS011;9927;47.792;10.616;2023-04-03T04:51:16;19.53;;;14.90;;
19560;SDS011;9927;47.792;10.616;2023-04-03T04:53:43;17.97;;;14.50;;
19560;SDS011;9927;47.792;10.616;2023-04-03T04:56:10;18.17;;;14.23;;
19560;SDS011;9927;47.792;10.616;2023-04-03T04:58:38;22.40;;;14.80;;
19560;SDS011;9927;47.792;10.616;2023-04-03T05:01:06;21.60;;;15.33;;
19560;SDS011;9927;47.792;10.616;2023-04-03T05:03:36;17.97;;;13.80;;
19560;SDS011;9927;47.792;10.616;2023-04-03T05:06:03;21.47;;;14.80;;
19560;SDS011;9927;47.792;10.616;2023-04-03T05:08:31;18.87;;;14.77;;
19560;SDS011;9927;47.792;10.616;2023-04-03T05:10:58;22.93;;;15.03;;
19560;SDS011;9927;47.792;10.616;2023-04-03T05:13:26;19.03;;;14.90;;
19560;SDS011;9927;47.792;10.616;2023-04-03T05:15:53;16.03;;;13.37;;
19560;SDS011;9927;47.792;10.616;2023-04-03T05:18:20;17.03;;;13.70;;
19560;SDS011;9927;47.792;10.616;2023-04-03T05:20:48;16.17;;;13.40;;
19560;SDS011;9927;47.792;10.616;2023-04-03T05:23:17;19.57;;;14.13;;
19560;SDS011;9927;47.792;10.616;2023-04-03T05:25:44;16.37;;;13.67;;
19560;SDS011;9927;47.792;10.616;2023-04-03T05:28:13;15.67;;;13.40;;
19560;SDS011;9927;47.792;10.616;2023-04-03T05:30:41;18.30;;;13.40;;
19560;SDS011;9927;47.792;10.616;2023-04-03T05:33:08;17.13;;;13.67;;
19560;SDS011;9927;47.792;10.616;2023-04-03T05:35:36;19.70;;;14.30;;
19560;SDS011;9927;47.792;10.616;2023-04-03T05:38:08;16.17;;;13.40;;
19560;SDS011;9927;47.792;10.616;2023-04-03T05:40:36;18.17;;;13.70;;
19560;SDS011;9927;47.792;10.616;2023-04-03T05:43:03;15.70;;;13.20;;
19560;SDS011;9927;47.792;10.616;2023-04-03T05:45:31;16.47;;;13.63;;
19560;SDS011;9927;47.792;10.616;2023-04-03T05:47:58;17.37;;;14.50;;
19560;SDS011;9927;47.792;10.616;2023-04-03T05:50:25;18.40;;;14.23;;
19560;SDS011;9927;47.792;10.616;2023-04-03T05:52:54;19.73;;;14.93;;
19560;SDS011;9927;47.792;10.616;2023-04-03T05:55:24;17.93;;;13.77;;
19560;SDS011;9927;47.792;10.616;2023-04-03T05:57:52;18.43;;;14.73;;
19560;SDS011;9927;47.792;10.616;2023-04-03T06:00:19;18.33;;;14.37;;
19560;SDS011;9927;47.792;10.616;2023-04-03T06:02:47;15.00;;;13.10;;
19560;SDS011;9927;47.792;10.616;2023-04-03T06:05:15;20.93;;;15.27;;
19560;SDS011;9927;47.792;10.616;2023-04-03T06:07:42;18.83;;;15.27;;
19560;SDS011;9927;47.792;10.616;2023-04-03T06:10:11;19.47;;;15.13;;
19560;SDS011;9927;47.792;10.616;2023-04-03T06:12:40;19.90;;;14.60;;
19560;SDS011;9927;47.792;10.616;2023-04-03T06:15:08;24.03;;;16.33;;
19560;SDS011;9927;47.792;10.616;2023-04-03T06:17:37;21.47;;;16.13;;
19560;SDS011;9927;47.792;10.616;2023-04-03T06:20:04;22.57;;;16.47;;
19560;SDS011;9927;47.792;10.616;2023-04-03T06:22:32;23.57;;;16.67;;
19560;SDS011;9927;47.792;10.616;2023-04-03T06:24:59;20.67;;;16.60;;
19560;SDS011;9927;47.792;10.616;2023-04-03T06:27:27;22.37;;;16.87;;
19560;SDS011;9927;47.792;10.616;2023-04-03T06:29:54;21.50;;;16.63;;
19560;SDS011;9927;47.792;10.616;2023-04-03T06:32:22;24.50;;;17.27;;
19560;SDS011;9927;47.792;10.616;2023-04-03T06:34:49;21.90;;;15.87;;
19560;SDS011;9927;47.792;10.616;2023-04-03T06:37:17;23.00;;;17.47;;
19560;SDS011;9927;47.792;10.616;2023-04-03T06:39:46;24.37;;;18.30;;
19560;SDS011;9927;47.792;10.616;2023-04-03T06:42:14;22.70;;;16.67;;
19560;SDS011;9927;47.792;10.616;2023-04-03T06:44:41;24.43;;;18.47;;
19560;SDS011;9927;47.792;10.616;2023-04-03T06:47:10;24.07;;;18.27;;
19560;SDS011;9927;47.792;10.616;2023-04-03T06:49:39;25.70;;;18.00;;
19560;SDS011;9927;47.792;10.616;2023-04-03T06:52:08;26.03;;;18.47;;
19560;SDS011;9927;47.792;10.616;2023-04-03T06:54:36;24.30;;;18.37;;
19560;SDS011;9927;47.792;10.616;2023-04-03T06:57:03;25.23;;;18.53;;
19560;SDS011;9927;47.792;10.616;2023-04-03T06:59:31;25.00;;;18.40;;
19560;SDS011;9927;47.792;10.616;2023-04-03T07:01:58;32.70;;;20.77;;
19560;SDS011;9927;47.792;10.616;2023-04-03T07:04:26;32.30;;;20.80;;
19560;SDS011;9927;47.792;10.616;2023-04-03T07:06:53;28.40;;;19.57;;
19560;SDS011;9927;47.792;10.616;2023-04-03T07:09:21;26.30;;;19.77;;
19560;SDS011;9927;47.792;10.616;2023-04-03T07:11:48;28.80;;;19.40;;
19560;SDS011;9927;47.792;10.616;2023-04-03T07:14:15;26.63;;;19.33;;
19560;SDS011;9927;47.792;10.616;2023-04-03T07:16:43;26.67;;;19.83;;
19560;SDS011;9927;47.792;10.616;2023-04-03T07:19:10;26.70;;;20.07;;
19560;SDS011;9927;47.792;10.616;2023-04-03T07:21:38;24.07;;;18.53;;
19560;SDS011;9927;47.792;10.616;2023-04-03T07:24:05;23.77;;;18.27;;
19560;SDS011;9927;47.792;10.616;2023-04-03T07:26:37;27.80;;;19.77;;
19560;SDS011;9927;47.792;10.616;2023-04-03T07:29:04;29.37;;;19.60;;
19560;SDS011;9927;47.792;10.616;2023-04-03T07:31:31;23.50;;;18.57;;
19560;SDS011;9927;47.792;10.616;2023-04-03T07:34:00;21.13;;;17.53;;
19560;SDS011;9927;47.792;10.616;2023-04-03T07:36:27;22.90;;;16.43;;
19560;SDS011;9927;47.792;10.616;2023-04-03T07:38:55;23.67;;;16.80;;
19560;SDS011;9927;47.792;10.616;2023-04-03T07:41:23;23.10;;;17.67;;
19560;SDS011;9927;47.792;10.616;2023-04-03T07:43:50;23.23;;;17.60;;
19560;SDS011;9927;47.792;10.616;2023-04-03T07:46:18;22.07;;;17.70;;
19560;SDS011;9927;47.792;10.616;2023-04-03T07:48:47;22.70;;;17.80;;
19560;SDS011;9927;47.792;10.616;2023-04-03T07:51:14;23.43;;;16.77;;
19560;SDS011;9927;47.792;10.616;2023-04-03T07:53:42;18.73;;;15.10;;
19560;SDS011;9927;47.792;10.616;2023-04-03T07:56:10;18.70;;;16.20;;
19560;SDS011;9927;47.792;10.616;2023-04-03T07:58:37;22.33;;;16.00;;
19560;SDS011;9927;47.792;10.616;2023-04-03T08:01:04;16.97;;;14.53;;
19560;SDS011;9927;47.792;10.616;2023-04-03T08:03:32;18.70;;;14.90;;
19560;SDS011;9927;47.792;10.616;2023-04-03T08:06:04;17.43;;;14.77;;
19560;SDS011;9927;47.792;10.616;2023-04-03T08:08:41;19.67;;;16.10;;
19560;SDS011;9927;47.792;10.616;2023-04-03T08:11:09;18.40;;;15.27;;
19560;SDS011;9927;47.792;10.616;2023-04-03T08:13:37;15.63;;;13.50;;
19560;SDS011;9927;47.792;10.616;2023-04-03T08:16:11;15.70;;;13.27;;
19560;SDS011;9927;47.792;10.616;2023-04-03T08:18:42;16.77;;;14.73;;
19560;SDS011;9927;47.792;10.616;2023-04-03T08:21:10;16.43;;;14.03;;
19560;SDS011;9927;47.792;10.616;2023-04-03T08:23:39;14.77;;;13.27;;
19560;SDS011;9927;47.792;10.616;2023-04-03T08:26:15;13.47;;;12.27;;
19560;SDS011;9927;47.792;10.616;2023-04-03T08:28:43;18.90;;;15.43;;
19560;SDS011;9927;47.792;10.616;2023-04-03T08:31:12;15.80;;;12.63;;
19560;SDS011;9927;47.792;10.616;2023-04-03T08:33:42;16.50;;;13.90;;
19560;SDS011;9927;47.792;10.616;2023-04-03T08:36:30;15.40;;;13.10;;
19560;SDS011;9927;47.792;10.616;2023-04-03T08:38:57;14.10;;;12.50;;
19560;SDS011;9927;47.792;10.616;2023-04-03T08:46:54;13.50;;;12.20;;
19560;SDS011;9927;47.792;10.616;2023-04-03T08:49:37;12.37;;;11.20;;
19560;SDS011;9927;47.792;10.616;2023-04-03T08:52:17;12.60;;;11.30;;
19560;SDS011;9927;47.792;10.616;2023-04-03T08:57:29;12.23;;;10.97;;
19560;SDS011;9927;47.792;10.616;2023-04-03T09:00:00;11.03;;;10.07;;
19560;SDS011;9927;47.792;10.616;2023-04-03T09:02:35;12.77;;;11.47;;
19560;SDS011;9927;47.792;10.616;2023-04-03T09:05:18;11.67;;;10.57;;
19560;SDS011;9927;47.792;10.616;2023-04-03T09:07:53;11.23;;;10.13;;
19560;SDS011;9927;47.792;10.616;2023-04-03T09:10:28;11.73;;;10.60;;
19560;SDS011;9927;47.792;10.616;2023-04-03T09:13:05;10.37;;;9.40;;
19560;SDS011;9927;47.792;10.616;2023-04-03T09:15:36;10.60;;;9.70;;
19560;SDS011;9927;47.792;10.616;2023-04-03T09:18:13;9.40;;;8.50;;
19560;SDS011;9927;47.792;10.616;2023-04-03T09:20:54;9.10;;;8.30;;
19560;SDS011;9927;47.792;10.616;2023-04-03T09:26:02;8.77;;;8.03;;
19560;SDS011;9927;47.792;10.616;2023-04-03T09:28:38;9.03;;;8.30;;
19560;SDS011;9927;47.792;10.616;2023-04-03T09:33:49;8.97;;;8.27;;
19560;SDS011;9927;47.792;10.616;2023-04-03T09:39:14;8.00;;;7.40;;
19560;SDS011;9927;47.792;10.616;2023-04-03T09:42:00;8.13;;;7.53;;
19560;SDS011;9927;47.792;10.616;2023-04-03T09:44:36;7.47;;;6.97;;
19560;SDS011;9927;47.792;10.616;2023-04-03T09:47:24;7.80;;;7.20;;
19560;SDS011;9927;47.792;10.616;2023-04-03T09:50:19;8.07;;;7.33;;
19560;SDS011;9927;47.792;10.616;2023-04-03T09:52:48;7.93;;;7.33;;
19560;SDS011;9927;47.792;10.616;2023-04-03T09:55:19;7.43;;;6.90;;
19560;SDS011;9927;47.792;10.616;2023-04-03T09:57:54;7.43;;;6.83;;
19560;SDS011;9927;47.792;10.616;2023-04-03T10:00:27;7.63;;;7.13;;
19560;SDS011;9927;47.792;10.616;2023-04-03T10:03:08;6.50;;;6.00;;
19560;SDS011;9927;47.792;10.616;2023-04-03T10:05:51;7.93;;;7.23;;
19560;SDS011;9927;47.792;10.616;2023-04-03T10:08:22;7.60;;;6.90;;
19560;SDS011;9927;47.792;10.616;2023-04-03T10:11:12;7.73;;;7.10;;
19560;SDS011;9927;47.792;10.616;2023-04-03T10:16:21;7.33;;;6.83;;
19560;SDS011;9927;47.792;10.616;2023-04-03T10:21:29;8.07;;;7.37;;
19560;SDS011;9927;47.792;10.616;2023-04-03T10:24:36;7.40;;;6.90;;
19560;SDS011;9927;47.792;10.616;2023-04-03T10:27:05;8.13;;;7.53;;
19560;SDS011;9927;47.792;10.616;2023-04-03T10:38:43;7.60;;;6.90;;
19560;SDS011;9927;47.792;10.616;2023-04-03T10:44:34;8.20;;;7.37;;
19560;SDS011;9927;47.792;10.616;2023-04-03T10:47:24;7.57;;;7.07;;
19560;SDS011;9927;47.792;10.616;2023-04-03T10:50:26;7.33;;;6.80;;
19560;SDS011;9927;47.792;10.616;2023-04-03T11:01:08;7.97;;;7.37;;
19560;SDS011;9927;47.792;10.616;2023-04-03T11:03:44;7.37;;;6.77;;
19560;SDS011;9927;47.792;10.616;2023-04-03T11:06:15;7.60;;;6.93;;
19560;SDS011;9927;47.792;10.616;2023-04-03T11:08:45;6.70;;;6.20;;
19560;SDS011;9927;47.792;10.616;2023-04-03T11:11:31;7.33;;;6.73;;
19560;SDS011;9927;47.792;10.616;2023-04-03T11:17:40;7.97;;;7.47;;
19560;SDS011;9927;47.792;10.616;2023-04-03T11:22:25;9.10;;;8.30;;
19560;SDS011;9927;47.792;10.616;2023-04-03T11:24:57;8.50;;;7.80;;
19560;SDS011;9927;47.792;10.616;2023-04-03T11:27:41;8.63;;;7.83;;
19560;SDS011;9927;47.792;10.616;2023-04-03T11:35:47;8.23;;;7.13;;
19560;SDS011;9927;47.792;10.616;2023-04-03T11:38:23;8.73;;;8.03;;
19560;SDS011;9927;47.792;10.616;2023-04-03T11:40:56;7.60;;;7.00;;
19560;SDS011;9927;47.792;10.616;2023-04-03T11:43:31;11.07;;;7.83;;
19560;SDS011;9927;47.792;10.616;2023-04-03T11:46:03;8.70;;;7.90;;
19560;SDS011;9927;47.792;10.616;2023-04-03T11:53:43;8.60;;;7.80;;
19560;SDS011;9927;47.792;10.616;2023-04-03T12:01:46;11.60;;;10.40;;
19560;SDS011;9927;47.792;10.616;2023-04-03T12:04:25;9.83;;;9.03;;
19560;SDS011;9927;47.792;10.616;2023-04-03T12:06:58;9.37;;;8.50;;
19560;SDS011;9927;47.792;10.616;2023-04-03T12:12:24;9.60;;;8.73;;
19560;SDS011;9927;47.792;10.616;2023-04-03T12:17:44;9.63;;;8.87;;
19560;SDS011;9927;47.792;10.616;2023-04-03T12:23:23;9.00;;;8.20;;
19560;SDS011;9927;47.792;10.616;2023-04-03T12:26:03;8.30;;;7.60;;
19560;SDS011;9927;47.792;10.616;2023-04-03T12:28:36;8.83;;;8.13;;
19560;SDS011;9927;47.792;10.616;2023-04-03T12:31:06;8.33;;;7.70;;
19560;SDS011;9927;47.792;10.616;2023-04-03T12:33:43;7.70;;;7.20;;
19560;SDS011;9927;47.792;10.616;2023-04-03T12:36:26;8.83;;;8.17;;
19560;SDS011;9927;47.792;10.616;2023-04-03T12:39:14;8.00;;;7.40;;
19560;SDS011;9927;47.792;10.616;2023-04-03T12:44:34;8.00;;;7.40;;
19560;SDS011;9927;47.792;10.616;2023-04-03T12:50:04;7.70;;;7.10;;
19560;SDS011;9927;47.792;10.616;2023-04-03T12:52:44;7.60;;;7.00;;
19560;SDS011;9927;47.792;10.616;2023-04-03T12:55:17;7.50;;;6.93;;
19560;SDS011;9927;47.792;10.616;2023-04-03T12:58:16;7.80;;;7.30;;
19560;SDS011;9927;47.792;10.616;2023-04-03T13:00:58;7.57;;;6.97;;
19560;SDS011;9927;47.792;10.616;2023-04-03T13:03:30;7.47;;;6.87;;
19560;SDS011;9927;47.792;10.616;2023-04-03T13:06:21;7.63;;;7.03;;
19560;SDS011;9927;47.792;10.616;2023-04-03T13:08:54;7.30;;;6.80;;
19560;SDS011;9927;47.792;10.616;2023-04-03T13:11:25;6.53;;;6.13;;
19560;SDS011;9927;47.792;10.616;2023-04-03T13:14:12;6.60;;;6.10;;
19560;SDS011;9927;47.792;10.616;2023-04-03T13:16:52;7.70;;;7.10;;
19560;SDS011;9927;47.792;10.616;2023-04-03T13:19:22;7.20;;;6.70;;
19560;SDS011;9927;47.792;10.616;2023-04-03T13:21:59;7.77;;;7.10;;
19560;SDS011;9927;47.792;10.616;2023-04-03T13:24:30;8.23;;;7.53;;
19560;SDS011;9927;47.792;10.616;2023-04-03T13:27:01;8.50;;;7.80;;
19560;SDS011;9927;47.792;10.616;2023-04-03T13:29:52;9.00;;;8.20;;
19560;SDS011;9927;47.792;10.616;2023-04-03T13:32:43;8.57;;;7.87;;
19560;SDS011;9927;47.792;10.616;2023-04-03T13:35:31;11.90;;;8.37;;
19560;SDS011;9927;47.792;10.616;2023-04-03T13:40:51;10.17;;;8.37;;
19560;SDS011;9927;47.792;10.616;2023-04-03T13:43:24;12.03;;;9.00;;
19560;SDS011;9927;47.792;10.616;2023-04-03T13:48:24;10.30;;;8.13;;
19560;SDS011;9927;47.792;10.616;2023-04-03T13:50:56;9.60;;;8.60;;
19560;SDS011;9927;47.792;10.616;2023-04-03T13:53:32;9.30;;;7.97;;
19560;SDS011;9927;47.792;10.616;2023-04-03T13:56:08;10.07;;;7.63;;
19560;SDS011;9927;47.792;10.616;2023-04-03T14:04:19;10.70;;;8.17;;
19560;SDS011;9927;47.792;10.616;2023-04-03T14:06:54;9.73;;;8.00;;
19560;SDS011;9927;47.792;10.616;2023-04-03T14:09:24;12.03;;;8.97;;
19560;SDS011;9927;47.792;10.616;2023-04-03T14:11:54;11.77;;;7.90;;
19560;SDS011;9927;47.792;10.616;2023-04-03T14:14:28;9.10;;;7.80;;
19560;SDS011;9927;47.792;10.616;2023-04-03T14:16:59;9.70;;;7.87;;
19560;SDS011;9927;47.792;10.616;2023-04-03T14:19:34;9.37;;;8.20;;
19560;SDS011;9927;47.792;10.616;2023-04-03T14:24:49;8.00;;;7.13;;
19560;SDS011;9927;47.792;10.616;2023-04-03T14:27:19;8.70;;;7.20;;
19560;SDS011;9927;47.792;10.616;2023-04-03T14:29:59;8.77;;;7.70;;
19560;SDS011;9927;47.792;10.616;2023-04-03T14:32:27;10.20;;;7.53;;
19560;SDS011;9927;47.792;10.616;2023-04-03T14:34:55;9.30;;;7.83;;
19560;SDS011;9927;47.792;10.616;2023-04-03T14:37:27;9.47;;;6.90;;
19560;SDS011;9927;47.792;10.616;2023-04-03T14:39:56;9.33;;;8.00;;
19560;SDS011;9927;47.792;10.616;2023-04-03T14:42:44;20.53;;;11.87;;
19560;SDS011;9927;47.792;10.616;2023-04-03T14:45:14;12.77;;;8.53;;
19560;SDS011;9927;47.792;10.616;2023-04-03T14:47:44;9.07;;;7.53;;
19560;SDS011;9927;47.792;10.616;2023-04-03T14:50:16;14.20;;;8.50;;
19560;SDS011;9927;47.792;10.616;2023-04-03T14:52:45;27.60;;;14.13;;
19560;SDS011;9927;47.792;10.616;2023-04-03T14:55:14;21.43;;;12.70;;
19560;SDS011;9927;47.792;10.616;2023-04-03T14:57:43;15.57;;;10.13;;
19560;SDS011;9927;47.792;10.616;2023-04-03T15:00:14;12.90;;;9.20;;
19560;SDS011;9927;47.792;10.616;2023-04-03T15:02:43;12.40;;;8.77;;
19560;SDS011;9927;47.792;10.616;2023-04-03T15:05:13;7.20;;;6.50;;
19560;SDS011;9927;47.792;10.616;2023-04-03T15:07:42;17.13;;;10.90;;
19560;SDS011;9927;47.792;10.616;2023-04-03T15:10:15;10.33;;;7.60;;
19560;SDS011;9927;47.792;10.616;2023-04-03T15:12:42;13.27;;;9.43;;
19560;SDS011;9927;47.792;10.616;2023-04-03T15:15:11;22.97;;;13.03;;
19560;SDS011;9927;47.792;10.616;2023-04-03T15:17:40;9.17;;;8.07;;
19560;SDS011;9927;47.792;10.616;2023-04-03T15:20:13;8.97;;;7.60;;
19560;SDS011;9927;47.792;10.616;2023-04-03T15:22:45;12.20;;;7.80;;
19560;SDS011;9927;47.792;10.616;2023-04-03T15:25:12;8.43;;;7.53;;
19560;SDS011;9927;47.792;10.616;2023-04-03T15:27:40;19.43;;;11.77;;
19560;SDS011;9927;47.792;10.616;2023-04-03T15:30:10;10.63;;;7.63;;
19560;SDS011;9927;47.792;10.616;2023-04-03T15:32:58;7.60;;;6.90;;
19560;SDS011;9927;47.792;10.616;2023-04-03T15:35:26;9.20;;;8.00;;
19560;SDS011;9927;47.792;10.616;2023-04-03T15:37:53;8.73;;;7.80;;
19560;SDS011;9927;47.792;10.616;2023-04-03T15:40:21;10.90;;;7.63;;
19560;SDS011;9927;47.792;10.616;2023-04-03T15:42:48;7.43;;;6.43;;
19560;SDS011;9927;47.792;10.616;2023-04-03T15:45:18;11.40;;;6.83;;
19560;SDS011;9927;47.792;10.616;2023-04-03T15:47:46;13.33;;;7.87;;
19560;SDS011;9927;47.792;10.616;2023-04-03T15:50:13;7.80;;;6.60;;
19560;SDS011;9927;47.792;10.616;2023-04-03T15:52:40;12.37;;;8.57;;
19560;SDS011;9927;47.792;10.616;2023-04-03T15:55:08;7.40;;;6.50;;
19560;SDS011;9927;47.792;10.616;2023-04-03T15:57:36;8.70;;;7.13;;
19560;SDS011;9927;47.792;10.616;2023-04-03T16:00:14;8.40;;;7.20;;
19560;SDS011;9927;47.792;10.616;2023-04-03T16:02:42;11.37;;;7.97;;
19560;SDS011;9927;47.792;10.616;2023-04-03T16:05:12;9.30;;;7.20;;
19560;SDS011;9927;47.792;10.616;2023-04-03T16:07:41;11.47;;;9.07;;
19560;SDS011;9927;47.792;10.616;2023-04-03T16:10:11;9.57;;;7.90;;
19560;SDS011;9927;47.792;10.616;2023-04-03T16:12:42;12.23;;;8.77;;
19560;SDS011;9927;47.792;10.616;2023-04-03T16:15:10;11.63;;;9.13;;
19560;SDS011;9927;47.792;10.616;2023-04-03T16:17:38;30.73;;;17.17;;
19560;SDS011;9927;47.792;10.616;2023-04-03T16:20:11;19.63;;;10.50;;
19560;SDS011;9927;47.792;10.616;2023-04-03T16:22:39;9.77;;;7.47;;
19560;SDS011;9927;47.792;10.616;2023-04-03T16:25:07;12.30;;;9.47;;
19560;SDS011;9927;47.792;10.616;2023-04-03T16:27:36;9.77;;;6.70;;
19560;SDS011;9927;47.792;10.616;2023-04-03T16:30:23;13.40;;;9.00;;
19560;SDS011;9927;47.792;10.616;2023-04-03T16:32:50;9.83;;;7.40;;
19560;SDS011;9927;47.792;10.616;2023-04-03T16:35:17;12.53;;;8.00;;
19560;SDS011;9927;47.792;10.616;2023-04-03T16:37:45;11.33;;;8.00;;
19560;SDS011;9927;47.792;10.616;2023-04-03T16:40:12;10.97;;;8.00;;
19560;SDS011;9927;47.792;10.616;2023-04-03T16:42:39;10.77;;;7.60;;
19560;SDS011;9927;47.792;10.616;2023-04-03T16:45:07;10.70;;;6.73;;
19560;SDS011;9927;47.792;10.616;2023-04-03T16:47:35;8.37;;;6.53;;
19560;SDS011;9927;47.792;10.616;2023-04-03T16:50:21;6.73;;;6.03;;
19560;SDS011;9927;47.792;10.616;2023-04-03T16:52:48;10.70;;;7.87;;
19560;SDS011;9927;47.792;10.616;2023-04-03T16:55:15;9.60;;;7.93;;
19560;SDS011;9927;47.792;10.616;2023-04-03T16:57:43;7.27;;;6.67;;
19560;SDS011;9927;47.792;10.616;2023-04-03T17:00:10;17.97;;;10.43;;
19560;SDS011;9927;47.792;10.616;2023-04-03T17:02:38;8.87;;;7.97;;
19560;SDS011;9927;47.792;10.616;2023-04-03T17:05:06;11.57;;;7.00;;
19560;SDS011;9927;47.792;10.616;2023-04-03T17:07:53;8.50;;;6.67;;
19560;SDS011;9927;47.792;10.616;2023-04-03T17:10:39;13.07;;;7.63;;
19560;SDS011;9927;47.792;10.616;2023-04-03T17:13:06;11.57;;;7.40;;
19560;SDS011;9927;47.792;10.616;2023-04-03T17:15:34;13.17;;;8.00;;
19560;SDS011;9927;47.792;10.616;2023-04-03T17:18:02;12.30;;;7.77;;
19560;SDS011;9927;47.792;10.616;2023-04-03T17:20:29;11.70;;;7.90;;
19560;SDS011;9927;47.792;10.616;2023-04-03T17:22:57;11.03;;;7.43;;
19560;SDS011;9927;47.792;10.616;2023-04-03T17:25:24;10.77;;;7.00;;
19560;SDS011;9927;47.792;10.616;2023-04-03T17:27:51;9.27;;;7.43;;
19560;SDS011;9927;47.792;10.616;2023-04-03T17:30:19;8.13;;;6.30;;
19560;SDS011;9927;47.792;10.616;2023-04-03T17:33:05;10.53;;;7.53;;
19560;SDS011;9927;47.792;10.616;2023-04-03T17:35:51;13.13;;;7.23;;
19560;SDS011;9927;47.792;10.616;2023-04-03T17:38:37;10.30;;;6.50;;
19560;SDS011;9927;47.792;10.616;2023-04-03T17:41:23;10.50;;;7.63;;
19560;SDS011;9927;47.792;10.616;2023-04-03T17:44:09;11.37;;;7.73;;
19560;SDS011;9927;47.792;10.616;2023-04-03T17:46:54;13.17;;;8.40;;
19560;SDS011;9927;47.792;10.616;2023-04-03T17:49:41;10.97;;;7.43;;
19560;SDS011;9927;47.792;10.616;2023-04-03T17:52:14;13.60;;;8.27;;
19560;SDS011;9927;47.792;10.616;2023-04-03T17:54:41;10.73;;;8.03;;
19560;SDS011;9927;47.792;10.616;2023-04-03T17:57:09;8.00;;;7.20;;
19560;SDS011;9927;47.792;10.616;2023-04-03T17:59:36;11.93;;;7.30;;
19560;SDS011;9927;47.792;10.616;2023-04-03T18:02:04;6.40;;;5.70;;
19560;SDS011;9927;47.792;10.616;2023-04-03T18:04:31;5.60;;;5.10;;
19560;SDS011;9927;47.792;10.616;2023-04-03T18:06:58;7.83;;;5.57;;
19560;SDS011;9927;47.792;10.616;2023-04-03T18:09:29;8.57;;;6.23;;
19560;SDS011;9927;47.792;10.616;2023-04-03T18:12:01;10.67;;;9.67;;
19560;SDS011;9927;47.792;10.616;2023-04-03T18:14:30;9.87;;;8.87;;
19560;SDS011;9927;47.792;10.616;2023-04-03T18:16:59;7.53;;;6.37;;
19560;SDS011;9927;47.792;10.616;2023-04-03T18:19:26;12.00;;;8.10;;
19560;SDS011;9927;47.792;10.616;2023-04-03T18:21:56;13.40;;;9.33;;
19560;SDS011;9927;47.792;10.616;2023-04-03T18:24:26;12.47;;;8.83;;
19560;SDS011;9927;47.792;10.616;2023-04-03T18:26:57;12.50;;;9.07;;
19560;SDS011;9927;47.792;10.616;2023-04-03T18:29:29;12.03;;;8.97;;
19560;SDS011;9927;47.792;10.616;2023-04-03T18:31:58;10.47;;;7.80;;
19560;SDS011;9927;47.792;10.616;2023-04-03T18:34:29;10.30;;;8.10;;
19560;SDS011;9927;47.792;10.616;2023-04-03T18:36:57;6.63;;;6.10;;
19560;SDS011;9927;47.792;10.616;2023-04-03T18:39:25;8.80;;;7.17;;
19560;SDS011;9927;47.792;10.616;2023-04-03T18:41:53;10.17;;;6.93;;
19560;SDS011;9927;47.792;10.616;2023-04-03T18:44:23;9.07;;;6.50;;
19560;SDS011;9927;47.792;10.616;2023-04-03T18:46:52;10.80;;;6.30;;
19560;SDS011;9927;47.792;10.616;2023-04-03T18:49:20;10.43;;;6.50;;
19560;SDS011;9927;47.792;10.616;2023-04-03T18:51:47;8.43;;;6.13;;
19560;SDS011;9927;47.792;10.616;2023-04-03T18:54:15;14.60;;;8.93;;
19560;SDS011;9927;47.792;10.616;2023-04-03T18:56:42;10.00;;;7.50;;
19560;SDS011;9927;47.792;10.616;2023-04-03T18:59:10;9.27;;;8.07;;
19560;SDS011;9927;47.792;10.616;2023-04-03T19:01:38;9.00;;;6.73;;
19560;SDS011;9927;47.792;10.616;2023-04-03T19:04:06;8.13;;;6.50;;
19560;SDS011;9927;47.792;10.616;2023-04-03T19:06:34;7.87;;;6.10;;
19560;SDS011;9927;47.792;10.616;2023-04-03T19:09:04;6.93;;;5.53;;
19560;SDS011;9927;47.792;10.616;2023-04-03T19:11:32;5.90;;;5.30;;
19560;SDS011;9927;47.792;10.616;2023-04-03T19:14:00;8.73;;;5.67;;
19560;SDS011;9927;47.792;10.616;2023-04-03T19:16:40;7.00;;;5.30;;
19560;SDS011;9927;47.792;10.616;2023-04-03T19:19:08;6.47;;;5.43;;
19560;SDS011;9927;47.792;10.616;2023-04-03T19:21:35;9.83;;;6.13;;
19560;SDS011;9927;47.792;10.616;2023-04-03T19:24:10;12.20;;;6.53;;
19560;SDS011;9927;47.792;10.616;2023-04-03T19:26:39;10.43;;;6.70;;
19560;SDS011;9927;47.792;10.616;2023-04-03T19:29:08;13.67;;;7.30;;
19560;SDS011;9927;47.792;10.616;2023-04-03T19:31:36;11.03;;;6.23;;
19560;SDS011;9927;47.792;10.616;2023-04-03T19:34:05;8.23;;;5.73;;
19560;SDS011;9927;47.792;10.616;2023-04-03T19:36:33;8.47;;;5.83;;
19560;SDS011;9927;47.792;10.616;2023-04-03T19:39:02;8.57;;;5.77;;